Meteo Giornale » Osservazioni meteo Austria » Linz-Hoersching

ore: 06:50 - Osservazioni Meteo Linz-Hoersching
Lat. 48° 14' N Lon. 14° 11' E Alt. 298 metri s.l.m.

molto_nuvoloso Europe/Vienna

17 °C

Molto Nuvoloso

Temp. 24 Ore

16 °C

27 °C

Ovest/Nord-Ovest

14.8 Km/h

Dew point 11 °C

Umidità 67 %

Visibilità  10 Km

Il sole sorge alle ore 05:00

Il sole tramonta alle ore 21:06

Data e Ora Cielo e Fenomeni T °C DP °C Um. % Pres. hPa Vis. km Vento km/h
Oggi h: 06:50 molto_nuvoloso Molto Nuvoloso 17 11 67 1022 10 O/NO 14.8
Oggi h: 06:20 molto_nuvoloso Molto Nuvoloso 17 11 67 1022 10 NO 14.8
Oggi h: 05:50 molto_nuvoloso Molto Nuvoloso 17 11 67 1022 10 O/NO 16.7
Oggi h: 05:20 molto_nuvoloso Molto Nuvoloso 17 13 77 1021 10 O 14.8
Oggi h: 04:50 molto_nuvoloso Molto Nuvoloso 17 13 77 1021 10 O 16.7
Oggi h: 04:20 molto_nuvoloso Molto Nuvoloso 17 13 77 1021 10 O 18.5
Oggi h: 03:50 molto_nuvoloso Molto Nuvoloso 18 13 72 1021 10 O 18.5
Oggi h: 03:20 coperto Coperto 18 12 67 1021 10 O 18.5
Oggi h: 02:50 molto_nuvoloso Molto Nuvoloso 19 13 68 1021 10 O/NO 18.5
Oggi h: 02:20 molto_nuvoloso Molto Nuvoloso 19 13 68 1020 10 O/NO 22.2
Oggi h: 01:50 molto_nuvoloso Molto Nuvoloso 20 13 64 1020 10 O/NO 22.2
Oggi h: 01:20 molto_nuvoloso Molto Nuvoloso 20 13 64 1019 10 O 22.2
Oggi h: 00:50 molto_nuvoloso Molto Nuvoloso 20 13 64 1019 10 O 25.9
Ieri h: 23:50 molto_nuvoloso Molto Nuvoloso 21 14 64 1018 10 O 20.3
Ieri h: 22:50 molto_nuvoloso Molto Nuvoloso 22 15 64 1018 10 O/NO 20.3
Ieri h: 22:20 sereno Sereno 21 16 73 1017 10 O/SO 14.8
Ieri h: 21:50 sereno Sereno 21 17 77 1017 10 O/SO 16.7
Ieri h: 21:20 sereno Sereno 21 17 77 1016 10 O/SO 16.7
Ieri h: 20:50 sereno Sereno 22 18 78 1016 10 O/SO 14.8
Ieri h: 20:20 sereno Sereno 22 18 78 1016 10 O/SO 13
Ieri h: 19:50 sereno Sereno 22 17 73 1016 10 O/SO 13
Ieri h: 19:20 poco_nuvoloso Poco Nuvoloso 22 17 73 1016 10 SO 13
Ieri h: 18:50 poco_nuvoloso Poco Nuvoloso 23 16 64 1016 10 O 11.1
Ieri h: 18:20 poco_nuvoloso Poco Nuvoloso 23 16 64 1016 10 O 14.8
Ieri h: 17:50 poco_nuvoloso Poco Nuvoloso 22 17 73 1016 10 O/SO 14.8
Ieri h: 17:20 sereno Sereno 22 17 73 1016 10 O 13
Ieri h: 16:50 poco_nuvoloso Poco Nuvoloso 22 17 73 1016 10 NO 11.1
Ieri h: 16:20 nuvoloso Nuvoloso 21 17 77 1017 10 O 16.7
Ieri h: 15:50 nuvoloso_piovaschi Rovescio di Pioggia 25 16 57 1018 6 O/NO 24
Ieri h: 15:20 poco_nuvoloso Poco Nuvoloso 25 16 57 1017 10 O 16.7
Ieri h: 14:50 nuvoloso Nuvoloso 21 17 77 1017 10 O 20.3
Ieri h: 14:20 coperto_pioggia Pioggia Debole Temporale nelle Vicinanze 26 16 54 1018 10 O/NO 31.5
Ieri h: 13:50 poco_nuvoloso Poco Nuvoloso 27 15 47 1017 10 O 24
Ieri h: 13:20 poco_nuvoloso Poco Nuvoloso 26 15 50 1018 10 O 27.8
Ieri h: 12:50 poco_nuvoloso Poco Nuvoloso 26 16 54 1018 10 O 22.2
Ieri h: 12:20 poco_nuvoloso Poco Nuvoloso 25 17 61 1018 10 O 22.2
Ieri h: 11:50 poco_nuvoloso Poco Nuvoloso 23 16 64 1019 10 O/SO 14.8
Ieri h: 11:20 poco_nuvoloso Poco Nuvoloso 23 16 64 1019 10 O 13
Ieri h: 10:50 poco_nuvoloso Poco Nuvoloso 21 16 73 1019 10 O/SO 13
Ieri h: 10:20 sereno Sereno 20 16 77 1019 10 SO 9.3
Ieri h: 09:50 poco_nuvoloso Poco Nuvoloso 20 16 77 1019 10 SO 9.3
Ieri h: 09:20 poco_nuvoloso Poco Nuvoloso 18 15 82 1019 10 O/SO 7.4
Ieri h: 08:50 nuvoloso Nuvoloso 17 15 88 1019 10 SO 9.3
Ieri h: 08:20 molto_nuvoloso Molto Nuvoloso 16 15 93 1019 10 N 3.7
Ieri h: 07:50 molto_nuvoloso Molto Nuvoloso 16 15 93 1019 10 N 3.7